WetterOnline ( https://www.wetteronline.de )

Wetter aktuell St. Blasien

Aktuelles Wetter: Feldberg/Schwarzwald (1493m)

6-stündlich | Neueste Meldungen
Ortszeit Temperatur Wetter
Mo, 04.07. 14:00 15.6° C wolkig
Mo, 04.07. 8:00 11.5° C Nebel
Mo, 04.07. 2:00 14.4° C bewölkt
So, 03.07. 20:00 17.7° C leicht bewölkt
So, 03.07. 14:00 17.9° C leicht bewölkt
So, 03.07. 8:00 13.1° C wolkenlos
So, 03.07. 2:00 13.7° C wolkenlos
Sa, 02.07. 20:00 17.0° C wolkenlos
Ortszeit Temperatur Wetter
Mo, 04.07. 17:00 13.8° C bedeckt
Mo, 04.07. 16:50 13.8° C bedeckt
Mo, 04.07. 16:40 13.7° C bedeckt
Mo, 04.07. 16:30 14.2° C bewölkt
Mo, 04.07. 16:20 14.2° C bewölkt
Mo, 04.07. 16:10 14.5° C bedeckt
Mo, 04.07. 16:00 14.8° C wolkig
Mo, 04.07. 15:30 15.1° C wolkig
Mo, 04.07. 15:00 14.7° C bewölkt
Mo, 04.07. 14:30 15.1° C wolkig
Mo, 04.07. 14:00 15.6° C wolkig
Ortszeit Relative Feuchte Sichtweite
Mo, 04.07. 14:00 80% 35 km
Mo, 04.07. 8:00 100% <100 m
Mo, 04.07. 2:00 70% >70 km
So, 03.07. 20:00 55% >70 km
So, 03.07. 14:00 61% 50 km
So, 03.07. 8:00 54% 60 km
So, 03.07. 2:00 71% 55 km
Sa, 02.07. 20:00 58% 40 km
Ortszeit Relative Feuchte Sichtweite
Mo, 04.07. 17:00 84% 60 km
Mo, 04.07. 16:50 84% -
Mo, 04.07. 16:40 83% -
Mo, 04.07. 16:30 81% 55 km
Mo, 04.07. 16:20 81% -
Mo, 04.07. 16:10 78% -
Mo, 04.07. 16:00 76% 60 km
Mo, 04.07. 15:30 78% 45 km
Mo, 04.07. 15:00 81% >70 km
Mo, 04.07. 14:30 78% 35 km
Mo, 04.07. 14:00 80% 35 km
Ortszeit Niederschlagsmenge Niederschlagsart
Mo, 04.07. 14:00 0.1 l/m2 in 6 Std. Niederschlag
Mo, 04.07. 8:00 0.3 l/m2 in 12 Std. Regen, Niederschlag
Mo, 04.07. 2:00 0.3 l/m2 in 6 Std. Regen
So, 03.07. 20:00 0.0 l/m2 in 12 Std. -
So, 03.07. 14:00 0.0 l/m2 in 6 Std. -
So, 03.07. 8:00 0.0 l/m2 in 12 Std. -
So, 03.07. 2:00 0.0 l/m2 in 6 Std. -
Sa, 02.07. 20:00 0.0 l/m2 in 12 Std. -
Ortszeit Niederschlagsmenge Niederschlagsart
Mo, 04.07. 17:00 0.0 l/m2 in 1 Std. Sprühregen
Mo, 04.07. 16:50 keine Meldung -
Mo, 04.07. 16:40 keine Meldung -
Mo, 04.07. 16:30 0.0 l/m2 in 1 Std. -
Mo, 04.07. 16:20 keine Meldung -
Mo, 04.07. 16:10 keine Meldung -
Mo, 04.07. 16:00 0.0 l/m2 in 1 Std. -
Mo, 04.07. 15:30 0.0 l/m2 in 1 Std. -
Mo, 04.07. 15:00 0.1 l/m2 in 1 Std. Sprühregen
Mo, 04.07. 14:30 0.0 l/m2 in 1 Std. -
Mo, 04.07. 14:00 0.0 l/m2 in 1 Std. Niederschlag
Ortszeit Stärke Spitze Richtung
km/h Bft. km/h Grad Sektor
Mo, 04.07. 14:00 9 2 44 290° W
Mo, 04.07. 8:00 30 5 48 200° S
Mo, 04.07. 2:00 7 2 32 280° W
So, 03.07. 20:00 19 3 46 270° W
So, 03.07. 14:00 15 3 46 260° W
So, 03.07. 8:00 39 6 54 230° SW
So, 03.07. 2:00 33 5 37 220° SW
Sa, 02.07. 20:00 7 2 22 190° S
Ortszeit Stärke Spitze Richtung
km/h Bft. km/h Grad Sektor
Mo, 04.07. 17:00 13 3 24 350° N
Mo, 04.07. 16:50 13 3 - 350° N
Mo, 04.07. 16:40 14 3 - 340° N
Mo, 04.07. 16:30 15 3 24 340° N
Mo, 04.07. 16:20 15 3 - 340° N
Mo, 04.07. 16:10 14 3 - 300° NW
Mo, 04.07. 16:00 17 3 26 290° W
Mo, 04.07. 15:30 14 3 25 290° W
Mo, 04.07. 15:00 13 3 26 340° N
Mo, 04.07. 14:30 13 3 26 290° W
Mo, 04.07. 14:00 9 2 22 290° W
Ortszeit Untergrenze Bedeckung Gattung
total tief tief mittel hoch
Mo, 04.07. 14:00 570 m 8/8 1/8 - - -
Mo, 04.07. 8:00 <30 m 8/8 0/8 - - -
Mo, 04.07. 2:00 1500 m 8/8 6/8 - - -
So, 03.07. 20:00 2100 m 3/8 3/8 - - -
So, 03.07. 14:00 1200 m 4/8 4/8 - - -
So, 03.07. 8:00 - 0/8 0/8 - - -
So, 03.07. 2:00 - 0/8 0/8 - - -
Sa, 02.07. 20:00 - 0/8 0/8 - - -
Ortszeit Bedeckungsgrad in Achtel und Wolkenuntergrenze
Mo, 04.07. 17:00 8(2400m)
Mo, 04.07. 16:50 8(2400m)
Mo, 04.07. 16:40 8
Mo, 04.07. 16:30 5(420m) 8(3300m) 8(4200m)
Mo, 04.07. 16:20 5(420m) 8(3300m) 8(4200m)
Mo, 04.07. 16:10 8
Mo, 04.07. 16:00 2(450m) 6(3900m) 7(4800m)
Mo, 04.07. 15:30 2(1380m) 4(2700m) 6(3600m)
Mo, 04.07. 15:00 6(270m) 7(3300m)
Mo, 04.07. 14:30 1(480m) 8(3300m) 8(4200m)
Mo, 04.07. 14:00 1(570m) 8(3900m) 8(5100m)
Ortszeit Stationsdruck (hPa) Tendenz (hPa in 3 Std.)
Mo, 04.07. 14:00 856 + 0,4
Mo, 04.07. 8:00 855 - 0,3
Mo, 04.07. 2:00 856 - 1,0
So, 03.07. 20:00 856 - 0,7
So, 03.07. 14:00 857 0,0
So, 03.07. 8:00 856 + 0,6
So, 03.07. 2:00 856 - 0,4
Sa, 02.07. 20:00 856 - 0,4
Ortszeit Stationsdruck (hPa) Tendenz (hPa in 3 Std.)
Mo, 04.07. 17:00 855 - 0,6
Mo, 04.07. 16:50 855 keine Meldung
Mo, 04.07. 16:40 855 keine Meldung
Mo, 04.07. 16:30 855 - 0,6
Mo, 04.07. 16:20 855 keine Meldung
Mo, 04.07. 16:10 855 keine Meldung
Mo, 04.07. 16:00 855 - 0,6
Mo, 04.07. 15:30 856 - 0,3
Mo, 04.07. 15:00 855 - 0,4
Mo, 04.07. 14:30 856 + 0,1
Mo, 04.07. 14:00 856 + 0,4
Ortszeit Schneehöhe (cm)
Mo, 04.07. 14:00 0
Mo, 04.07. 8:00 0
Mo, 04.07. 2:00 0
So, 03.07. 20:00 0
So, 03.07. 14:00 0
So, 03.07. 8:00 0
So, 03.07. 2:00 0
Sa, 02.07. 20:00 0
Ortszeit Schneehöhe (cm)
Mo, 04.07. 17:00 0
Mo, 04.07. 16:50 0
Mo, 04.07. 16:40 0
Mo, 04.07. 16:30 0
Mo, 04.07. 16:20 0
Mo, 04.07. 16:10 0
Mo, 04.07. 16:00 0
Mo, 04.07. 15:30 0
Mo, 04.07. 15:00 0
Mo, 04.07. 14:30 0
Mo, 04.07. 14:00 0
Link zu dieser Seite / Seite empfehlen

Das Wetter in ...